Lost Creek, West Virginia
Current Conditions -  °F | °C
As of 10:53 PM on Monday 22 Dec 2014 (Local Time) from KCKB Reporting Station
Overcast Overcast  
Wind Chill:   Ceiling: 8500
Heat Index:   Visibility: 10mi
Dew Point:   Wind: 3mph
Humidity: 79%   Direction: 350°N
Pressure: 29.92"   Gusts: NA
Location:  39.16°N, 80.35°W
Report Text: KCKB 230353Z 35003KT 10SM OVC085 06/02 A2992 RMK AO2 SLP133 T00560022
Loading
Personal Weather Stations






























Interactive Weather Map New forecast layout! Learn more

10-Day Weather Forecast

Advertisements
Track Severe Weather on mobile